sensor_id;sensor_type;location;lat;lon;timestamp;pressure;altitude;pressure_sealevel;temperature;humidity
11830;BME280;5972;42.134;24.718;2024-03-23T00:55:48;99834.31;;;6.33;100.00
11830;BME280;5972;42.134;24.718;2024-03-23T00:58:19;99840.47;;;6.33;100.00
11830;BME280;5972;42.134;24.718;2024-03-23T01:00:46;99806.47;;;6.29;100.00
11830;BME280;5972;42.134;24.718;2024-03-23T01:03:12;99835.00;;;6.47;100.00
11830;BME280;5972;42.134;24.718;2024-03-23T01:05:39;99830.94;;;6.58;100.00
11830;BME280;5972;42.134;24.718;2024-03-23T01:08:07;99832.41;;;6.64;100.00
11830;BME280;5972;42.134;24.718;2024-03-23T01:10:34;99797.38;;;6.47;100.00
11830;BME280;5972;42.134;24.718;2024-03-23T01:13:00;99812.78;;;6.63;100.00
11830;BME280;5972;42.134;24.718;2024-03-23T01:15:27;99833.41;;;6.77;100.00
11830;BME280;5972;42.134;24.718;2024-03-23T01:17:53;99812.19;;;6.75;100.00
11830;BME280;5972;42.134;24.718;2024-03-23T01:20:22;99824.91;;;6.83;100.00
11830;BME280;5972;42.134;24.718;2024-03-23T01:22:48;99828.09;;;6.85;100.00
11830;BME280;5972;42.134;24.718;2024-03-23T01:25:17;99833.63;;;6.97;100.00
11830;BME280;5972;42.134;24.718;2024-03-23T01:27:43;99829.84;;;6.90;100.00
11830;BME280;5972;42.134;24.718;2024-03-23T01:30:10;99817.13;;;6.82;100.00
11830;BME280;5972;42.134;24.718;2024-03-23T01:32:36;99831.66;;;6.72;100.00
11830;BME280;5972;42.134;24.718;2024-03-23T01:35:03;99830.50;;;6.64;100.00
11830;BME280;5972;42.134;24.718;2024-03-23T01:37:29;99828.31;;;6.66;100.00
11830;BME280;5972;42.134;24.718;2024-03-23T01:39:56;99831.31;;;6.65;100.00
11830;BME280;5972;42.134;24.718;2024-03-23T01:42:23;99840.00;;;6.62;100.00
11830;BME280;5972;42.134;24.718;2024-03-23T01:44:51;99840.44;;;6.55;100.00
11830;BME280;5972;42.134;24.718;2024-03-23T01:47:19;99834.44;;;6.58;100.00
11830;BME280;5972;42.134;24.718;2024-03-23T01:49:46;99834.25;;;6.46;100.00
11830;BME280;5972;42.134;24.718;2024-03-23T01:52:12;99815.94;;;6.26;100.00
11830;BME280;5972;42.134;24.718;2024-03-23T01:54:39;99825.16;;;6.34;100.00
11830;BME280;5972;42.134;24.718;2024-03-23T01:57:05;99838.38;;;6.30;100.00
11830;BME280;5972;42.134;24.718;2024-03-23T01:59:34;99831.88;;;6.22;100.00
11830;BME280;5972;42.134;24.718;2024-03-23T02:02:00;99830.13;;;6.18;100.00
11830;BME280;5972;42.134;24.718;2024-03-23T02:04:27;99839.28;;;6.17;100.00
11830;BME280;5972;42.134;24.718;2024-03-23T02:06:53;99830.78;;;6.23;100.00
11830;BME280;5972;42.134;24.718;2024-03-23T02:09:20;99820.09;;;6.10;100.00
11830;BME280;5972;42.134;24.718;2024-03-23T02:11:46;99830.47;;;6.25;100.00
11830;BME280;5972;42.134;24.718;2024-03-23T02:14:13;99816.56;;;6.23;100.00
11830;BME280;5972;42.134;24.718;2024-03-23T02:16:40;99827.91;;;6.20;100.00
11830;BME280;5972;42.134;24.718;2024-03-23T02:19:08;99828.53;;;6.17;100.00
11830;BME280;5972;42.134;24.718;2024-03-23T02:21:34;99828.03;;;6.15;100.00
11830;BME280;5972;42.134;24.718;2024-03-23T02:24:03;99828.31;;;6.13;100.00
11830;BME280;5972;42.134;24.718;2024-03-23T02:26:29;99826.44;;;6.14;100.00
11830;BME280;5972;42.134;24.718;2024-03-23T02:28:56;99832.25;;;6.07;100.00
11830;BME280;5972;42.134;24.718;2024-03-23T02:31:22;99797.91;;;5.96;100.00
11830;BME280;5972;42.134;24.718;2024-03-23T02:33:49;99828.03;;;6.15;100.00
11830;BME280;5972;42.134;24.718;2024-03-23T02:36:15;99829.13;;;6.14;100.00
11830;BME280;5972;42.134;24.718;2024-03-23T02:38:43;99831.88;;;6.22;100.00
11830;BME280;5972;42.134;24.718;2024-03-23T02:41:12;99825.22;;;6.20;100.00
11830;BME280;5972;42.134;24.718;2024-03-23T02:43:39;99821.38;;;6.12;100.00
11830;BME280;5972;42.134;24.718;2024-03-23T02:46:05;99760.44;;;5.55;100.00
11830;BME280;5972;42.134;24.718;2024-03-23T02:48:32;99826.94;;;5.94;100.00
11830;BME280;5972;42.134;24.718;2024-03-23T02:50:58;99823.28;;;5.90;100.00
11830;BME280;5972;42.134;24.718;2024-03-23T02:53:25;99830.63;;;5.84;100.00
11830;BME280;5972;42.134;24.718;2024-03-23T02:55:51;99825.56;;;5.82;100.00
11830;BME280;5972;42.134;24.718;2024-03-23T02:58:20;99825.53;;;5.60;100.00
11830;BME280;5972;42.134;24.718;2024-03-23T03:00:46;99833.47;;;5.65;100.00
11830;BME280;5972;42.134;24.718;2024-03-23T03:03:13;99817.59;;;5.55;100.00
11830;BME280;5972;42.134;24.718;2024-03-23T03:05:39;99813.63;;;5.53;100.00
11830;BME280;5972;42.134;24.718;2024-03-23T03:08:06;99827.81;;;5.67;100.00
11830;BME280;5972;42.134;24.718;2024-03-23T03:10:32;99800.41;;;5.56;100.00
11830;BME280;5972;42.134;24.718;2024-03-23T03:13:01;99791.69;;;5.51;100.00
11830;BME280;5972;42.134;24.718;2024-03-23T03:15:29;99781.19;;;5.40;100.00
11830;BME280;5972;42.134;24.718;2024-03-23T03:17:56;99776.94;;;5.26;100.00
11830;BME280;5972;42.134;24.718;2024-03-23T03:20:22;99818.75;;;5.40;100.00
11830;BME280;5972;42.134;24.718;2024-03-23T03:22:49;99802.66;;;5.40;100.00
11830;BME280;5972;42.134;24.718;2024-03-23T03:25:15;99801.47;;;5.33;100.00
11830;BME280;5972;42.134;24.718;2024-03-23T03:27:42;99814.06;;;5.46;100.00
11830;BME280;5972;42.134;24.718;2024-03-23T03:30:09;99808.88;;;5.50;100.00
11830;BME280;5972;42.134;24.718;2024-03-23T03:32:37;99817.44;;;5.52;100.00
11830;BME280;5972;42.134;24.718;2024-03-23T03:35:04;99823.78;;;5.56;100.00
11830;BME280;5972;42.134;24.718;2024-03-23T03:37:31;99819.69;;;5.58;100.00
11830;BME280;5972;42.134;24.718;2024-03-23T03:39:57;99826.38;;;5.47;100.00
11830;BME280;5972;42.134;24.718;2024-03-23T03:42:24;99805.13;;;5.37;100.00
11830;BME280;5972;42.134;24.718;2024-03-23T03:44:50;99826.47;;;5.42;100.00
11830;BME280;5972;42.134;24.718;2024-03-23T03:47:18;99827.16;;;5.48;100.00
11830;BME280;5972;42.134;24.718;2024-03-23T03:49:45;99832.94;;;5.41;100.00
11830;BME280;5972;42.134;24.718;2024-03-23T03:52:12;99827.56;;;5.41;100.00
11830;BME280;5972;42.134;24.718;2024-03-23T03:54:38;99834.66;;;5.37;100.00
11830;BME280;5972;42.134;24.718;2024-03-23T03:57:05;99843.78;;;5.36;100.00
11830;BME280;5972;42.134;24.718;2024-03-23T03:59:31;99837.63;;;5.35;100.00
11830;BME280;5972;42.134;24.718;2024-03-23T04:01:58;99821.06;;;5.20;100.00
11830;BME280;5972;42.134;24.718;2024-03-23T04:04:24;99843.09;;;5.30;100.00
11830;BME280;5972;42.134;24.718;2024-03-23T04:06:58;99841.81;;;5.28;100.00
11830;BME280;5972;42.134;24.718;2024-03-23T04:09:24;99841.25;;;5.17;100.00
11830;BME280;5972;42.134;24.718;2024-03-23T04:11:51;99846.31;;;4.91;100.00
11830;BME280;5972;42.134;24.718;2024-03-23T04:14:17;99838.66;;;4.71;100.00
11830;BME280;5972;42.134;24.718;2024-03-23T04:16:44;99828.94;;;4.75;100.00
11830;BME280;5972;42.134;24.718;2024-03-23T04:19:10;99855.84;;;4.84;100.00
11830;BME280;5972;42.134;24.718;2024-03-23T04:21:37;99829.44;;;4.77;100.00
11830;BME280;5972;42.134;24.718;2024-03-23T04:24:05;99850.19;;;4.99;100.00
11830;BME280;5972;42.134;24.718;2024-03-23T04:26:40;99853.38;;;5.01;100.00
11830;BME280;5972;42.134;24.718;2024-03-23T04:29:06;99842.81;;;4.91;100.00
11830;BME280;5972;42.134;24.718;2024-03-23T04:31:33;99856.63;;;4.98;100.00
11830;BME280;5972;42.134;24.718;2024-03-23T04:34:00;99857.94;;;4.87;100.00
11830;BME280;5972;42.134;24.718;2024-03-23T04:36:27;99854.06;;;4.93;100.00
11830;BME280;5972;42.134;24.718;2024-03-23T04:38:53;99849.59;;;5.16;100.00
11830;BME280;5972;42.134;24.718;2024-03-23T04:41:21;99858.59;;;5.33;100.00
11830;BME280;5972;42.134;24.718;2024-03-23T04:43:48;99852.72;;;5.45;100.00
11830;BME280;5972;42.134;24.718;2024-03-23T04:46:15;99850.19;;;5.62;100.00
11830;BME280;5972;42.134;24.718;2024-03-23T04:48:42;99868.44;;;5.88;100.00
11830;BME280;5972;42.134;24.718;2024-03-23T04:51:10;99868.56;;;6.05;100.00
11830;BME280;5972;42.134;24.718;2024-03-23T04:53:38;99844.28;;;5.88;100.00
11830;BME280;5972;42.134;24.718;2024-03-23T04:56:05;99843.22;;;5.97;100.00
11830;BME280;5972;42.134;24.718;2024-03-23T04:58:33;99824.13;;;6.21;100.00
11830;BME280;5972;42.134;24.718;2024-03-23T05:00:59;99856.34;;;6.74;100.00
11830;BME280;5972;42.134;24.718;2024-03-23T05:03:26;99855.78;;;6.94;100.00
11830;BME280;5972;42.134;24.718;2024-03-23T05:05:52;99858.56;;;7.20;100.00
11830;BME280;5972;42.134;24.718;2024-03-23T05:08:19;99839.84;;;7.06;100.00
11830;BME280;5972;42.134;24.718;2024-03-23T05:10:45;99861.44;;;7.32;100.00
11830;BME280;5972;42.134;24.718;2024-03-23T05:13:12;99852.59;;;7.49;99.77
11830;BME280;5972;42.134;24.718;2024-03-23T05:15:39;99859.59;;;7.76;96.90
11830;BME280;5972;42.134;24.718;2024-03-23T05:18:07;99852.94;;;8.16;92.66
11830;BME280;5972;42.134;24.718;2024-03-23T05:20:33;99853.69;;;8.51;88.01
11830;BME280;5972;42.134;24.718;2024-03-23T05:22:59;99840.53;;;8.88;82.58
11830;BME280;5972;42.134;24.718;2024-03-23T05:25:25;99808.66;;;8.81;79.87
11830;BME280;5972;42.134;24.718;2024-03-23T05:27:55;99826.59;;;9.15;73.68
11830;BME280;5972;42.134;24.718;2024-03-23T05:30:21;99843.06;;;9.51;73.71
11830;BME280;5972;42.134;24.718;2024-03-23T05:32:50;99844.09;;;10.00;70.62
11830;BME280;5972;42.134;24.718;2024-03-23T05:35:16;99845.53;;;10.76;65.66
11830;BME280;5972;42.134;24.718;2024-03-23T05:37:43;99848.84;;;11.18;59.95
11830;BME280;5972;42.134;24.718;2024-03-23T05:40:11;99825.16;;;11.79;56.74
11830;BME280;5972;42.134;24.718;2024-03-23T05:42:40;99839.34;;;12.60;53.59
11830;BME280;5972;42.134;24.718;2024-03-23T05:45:07;99831.38;;;14.22;48.98
11830;BME280;5972;42.134;24.718;2024-03-23T05:47:34;99819.03;;;14.93;45.08
11830;BME280;5972;42.134;24.718;2024-03-23T05:50:02;99819.44;;;15.21;43.53
11830;BME280;5972;42.134;24.718;2024-03-23T05:52:32;99832.34;;;15.51;43.00
11830;BME280;5972;42.134;24.718;2024-03-23T05:55:00;99831.25;;;15.03;42.77
11830;BME280;5972;42.134;24.718;2024-03-23T05:57:27;99851.94;;;15.33;42.05
11830;BME280;5972;42.134;24.718;2024-03-23T05:59:53;99835.75;;;16.37;40.82
11830;BME280;5972;42.134;24.718;2024-03-23T06:02:20;99823.34;;;16.43;39.83
11830;BME280;5972;42.134;24.718;2024-03-23T06:04:46;99844.38;;;17.93;37.94
11830;BME280;5972;42.134;24.718;2024-03-23T06:07:39;99856.66;;;17.55;36.86
11830;BME280;5972;42.134;24.718;2024-03-23T06:11:12;99786.91;;;16.69;38.44
11830;BME280;5972;42.134;24.718;2024-03-23T06:13:37;99777.09;;;17.95;36.57
11830;BME280;5972;42.134;24.718;2024-03-23T06:16:41;99760.00;;;18.90;34.87
11830;BME280;5972;42.134;24.718;2024-03-23T06:19:13;99738.38;;;19.28;34.05
11830;BME280;5972;42.134;24.718;2024-03-23T06:25:04;99765.44;;;20.16;32.83
11830;BME280;5972;42.134;24.718;2024-03-23T06:27:47;99804.25;;;20.84;32.00
11830;BME280;5972;42.134;24.718;2024-03-23T06:30:46;99857.75;;;21.28;31.48
11830;BME280;5972;42.134;24.718;2024-03-23T06:33:45;99801.88;;;20.27;31.92
11830;BME280;5972;42.134;24.718;2024-03-23T06:36:59;99718.84;;;18.12;34.04
11830;BME280;5972;42.134;24.718;2024-03-23T06:39:52;99827.38;;;19.16;34.79
11830;BME280;5972;42.134;24.718;2024-03-23T06:42:32;99702.56;;;20.25;32.09
11830;BME280;5972;42.134;24.718;2024-03-23T06:45:29;99827.75;;;22.35;30.28
11830;BME280;5972;42.134;24.718;2024-03-23T06:51:29;99755.06;;;22.25;29.39
11830;BME280;5972;42.134;24.718;2024-03-23T06:54:15;99705.25;;;21.55;29.44
11830;BME280;5972;42.134;24.718;2024-03-23T06:56:58;99713.13;;;20.30;30.52
11830;BME280;5972;42.134;24.718;2024-03-23T06:59:35;99697.41;;;20.79;30.75
11830;BME280;5972;42.134;24.718;2024-03-23T07:02:08;99776.03;;;19.17;32.60
11830;BME280;5972;42.134;24.718;2024-03-23T07:04:50;99753.03;;;17.46;35.16
11830;BME280;5972;42.134;24.718;2024-03-23T07:07:41;99768.28;;;16.41;36.63
11830;BME280;5972;42.134;24.718;2024-03-23T07:13:55;99772.34;;;17.74;35.74
11830;BME280;5972;42.134;24.718;2024-03-23T07:17:36;99695.78;;;16.98;35.32
11830;BME280;5972;42.134;24.718;2024-03-23T07:21:50;99835.41;;;17.34;36.66
11830;BME280;5972;42.134;24.718;2024-03-23T07:30:17;99724.16;;;16.36;36.94
11830;BME280;5972;42.134;24.718;2024-03-23T07:31:47;99685.28;;;16.49;37.08
11830;BME280;5972;42.134;24.718;2024-03-23T07:39:21;99821.97;;;16.60;37.85
11830;BME280;5972;42.134;24.718;2024-03-23T07:40:44;99657.91;;;15.58;38.15
11830;BME280;5972;42.134;24.718;2024-03-23T07:43:47;99687.47;;;16.33;37.98
11830;BME280;5972;42.134;24.718;2024-03-23T07:46:44;99725.22;;;17.33;36.54
11830;BME280;5972;42.134;24.718;2024-03-23T07:49:25;99730.84;;;17.62;35.74
11830;BME280;5972;42.134;24.718;2024-03-23T07:52:57;99667.94;;;17.69;34.63
11830;BME280;5972;42.134;24.718;2024-03-23T07:55:40;99666.00;;;17.91;34.39
11830;BME280;5972;42.134;24.718;2024-03-23T07:58:25;99798.00;;;18.99;33.81
11830;BME280;5972;42.134;24.718;2024-03-23T08:00:54;99733.38;;;18.80;33.41
11830;BME280;5972;42.134;24.718;2024-03-23T08:03:27;99664.81;;;18.87;32.95
11830;BME280;5972;42.134;24.718;2024-03-23T08:05:54;99802.84;;;19.92;32.75
11830;BME280;5972;42.134;24.718;2024-03-23T08:08:21;99722.66;;;19.35;32.54
11830;BME280;5972;42.134;24.718;2024-03-23T08:10:48;99785.94;;;20.01;32.51
11830;BME280;5972;42.134;24.718;2024-03-23T08:13:15;99771.38;;;20.70;31.81
11830;BME280;5972;42.134;24.718;2024-03-23T08:15:41;99771.28;;;21.59;30.67
11830;BME280;5972;42.134;24.718;2024-03-23T08:18:08;99770.50;;;22.19;29.34
11830;BME280;5972;42.134;24.718;2024-03-23T08:20:36;99764.53;;;22.51;28.76
11830;BME280;5972;42.134;24.718;2024-03-23T08:23:03;99659.38;;;21.72;28.68
11830;BME280;5972;42.134;24.718;2024-03-23T08:25:30;99759.97;;;21.50;29.78
11830;BME280;5972;42.134;24.718;2024-03-23T08:27:57;99724.47;;;21.89;29.23
11830;BME280;5972;42.134;24.718;2024-03-23T08:30:24;99754.03;;;22.16;28.79
11830;BME280;5972;42.134;24.718;2024-03-23T08:32:51;99752.00;;;21.89;28.77
11830;BME280;5972;42.134;24.718;2024-03-23T08:35:17;99742.44;;;22.28;28.33
11830;BME280;5972;42.134;24.718;2024-03-23T08:37:45;99744.53;;;22.44;28.34
11830;BME280;5972;42.134;24.718;2024-03-23T08:40:13;99733.38;;;22.77;27.86
11830;BME280;5972;42.134;24.718;2024-03-23T08:42:40;99739.94;;;23.27;27.41
11830;BME280;5972;42.134;24.718;2024-03-23T08:45:06;99700.94;;;22.58;27.43
11830;BME280;5972;42.134;24.718;2024-03-23T08:47:34;99741.81;;;22.67;27.69
11830;BME280;5972;42.134;24.718;2024-03-23T08:50:01;99727.38;;;22.32;27.94
11830;BME280;5972;42.134;24.718;2024-03-23T08:52:29;99727.09;;;23.59;27.01
11830;BME280;5972;42.134;24.718;2024-03-23T08:54:56;99729.44;;;24.13;26.40
11830;BME280;5972;42.134;24.718;2024-03-23T08:57:26;99679.31;;;25.34;24.82
11830;BME280;5972;42.134;24.718;2024-03-23T08:59:54;99678.63;;;25.17;24.89
11830;BME280;5972;42.134;24.718;2024-03-23T09:02:21;99613.78;;;25.02;24.64
11830;BME280;5972;42.134;24.718;2024-03-23T09:04:48;99595.16;;;23.47;25.93
11830;BME280;5972;42.134;24.718;2024-03-23T09:07:14;99649.47;;;24.38;26.00
11830;BME280;5972;42.134;24.718;2024-03-23T09:09:41;99672.34;;;25.29;25.20
11830;BME280;5972;42.134;24.718;2024-03-23T09:12:12;99698.63;;;25.91;24.47
11830;BME280;5972;42.134;24.718;2024-03-23T09:14:39;99685.72;;;26.10;23.97
11830;BME280;5972;42.134;24.718;2024-03-23T09:17:05;99686.53;;;26.36;23.85
11830;BME280;5972;42.134;24.718;2024-03-23T09:19:36;99686.06;;;25.87;23.92
11830;BME280;5972;42.134;24.718;2024-03-23T09:22:02;99683.84;;;25.69;23.93
11830;BME280;5972;42.134;24.718;2024-03-23T09:24:30;99658.97;;;24.37;24.74
11830;BME280;5972;42.134;24.718;2024-03-23T09:26:57;99659.19;;;24.59;25.14
11830;BME280;5972;42.134;24.718;2024-03-23T09:29:26;99645.78;;;25.44;24.21
11830;BME280;5972;42.134;24.718;2024-03-23T09:31:52;99672.72;;;24.86;24.44
11830;BME280;5972;42.134;24.718;2024-03-23T09:34:21;99603.56;;;24.09;24.92
11830;BME280;5972;42.134;24.718;2024-03-23T09:36:50;99608.41;;;25.23;24.33
11830;BME280;5972;42.134;24.718;2024-03-23T09:39:17;99661.25;;;25.96;23.41
11830;BME280;5972;42.134;24.718;2024-03-23T09:41:43;99639.13;;;26.18;23.69
11830;BME280;5972;42.134;24.718;2024-03-23T09:44:10;99644.34;;;26.03;23.31
11830;BME280;5972;42.134;24.718;2024-03-23T09:46:38;99647.91;;;25.65;23.71
11830;BME280;5972;42.134;24.718;2024-03-23T09:49:05;99648.78;;;26.26;23.28
11830;BME280;5972;42.134;24.718;2024-03-23T09:51:35;99640.06;;;25.77;23.50
11830;BME280;5972;42.134;24.718;2024-03-23T09:54:03;99645.22;;;26.25;23.29
11830;BME280;5972;42.134;24.718;2024-03-23T09:56:29;99638.31;;;25.29;24.63
11830;BME280;5972;42.134;24.718;2024-03-23T09:59:05;99610.22;;;24.11;25.68
11830;BME280;5972;42.134;24.718;2024-03-23T10:01:34;99560.31;;;22.58;26.77
11830;BME280;5972;42.134;24.718;2024-03-23T10:04:03;99626.13;;;22.79;27.29
11830;BME280;5972;42.134;24.718;2024-03-23T10:06:29;99629.50;;;23.46;26.72
11830;BME280;5972;42.134;24.718;2024-03-23T10:08:56;99624.72;;;23.11;27.27
11830;BME280;5972;42.134;24.718;2024-03-23T10:11:22;99602.84;;;22.37;28.04
11830;BME280;5972;42.134;24.718;2024-03-23T10:13:52;99613.41;;;21.92;28.24
11830;BME280;5972;42.134;24.718;2024-03-23T10:16:22;99565.38;;;21.93;28.16
11830;BME280;5972;42.134;24.718;2024-03-23T10:18:50;99600.59;;;22.75;27.64
11830;BME280;5972;42.134;24.718;2024-03-23T10:21:18;99586.59;;;22.63;26.90
11830;BME280;5972;42.134;24.718;2024-03-23T10:23:46;99556.44;;;22.56;27.71
11830;BME280;5972;42.134;24.718;2024-03-23T10:26:21;99595.94;;;22.49;27.91
11830;BME280;5972;42.134;24.718;2024-03-23T10:28:53;99555.19;;;22.17;28.25
11830;BME280;5972;42.134;24.718;2024-03-23T10:31:22;99519.97;;;22.05;28.08
11830;BME280;5972;42.134;24.718;2024-03-23T10:33:49;99531.66;;;21.86;27.38
11830;BME280;5972;42.134;24.718;2024-03-23T10:36:17;99486.66;;;21.73;27.41
11830;BME280;5972;42.134;24.718;2024-03-23T10:38:48;99528.53;;;22.11;27.86
11830;BME280;5972;42.134;24.718;2024-03-23T10:41:15;99573.47;;;23.10;27.47
11830;BME280;5972;42.134;24.718;2024-03-23T10:43:43;99467.97;;;22.47;27.91
11830;BME280;5972;42.134;24.718;2024-03-23T10:46:13;99524.22;;;22.72;27.99
11830;BME280;5972;42.134;24.718;2024-03-23T10:48:41;99513.75;;;21.51;29.14
11830;BME280;5972;42.134;24.718;2024-03-23T10:51:09;99536.47;;;22.48;27.96
11830;BME280;5972;42.134;24.718;2024-03-23T10:53:38;99513.91;;;22.93;27.38
11830;BME280;5972;42.134;24.718;2024-03-23T10:56:05;99481.47;;;23.16;27.26
11830;BME280;5972;42.134;24.718;2024-03-23T10:58:37;99527.56;;;22.60;28.64
11830;BME280;5972;42.134;24.718;2024-03-23T11:01:04;99464.00;;;22.08;27.96
11830;BME280;5972;42.134;24.718;2024-03-23T11:03:36;99501.22;;;21.73;28.40
11830;BME280;5972;42.134;24.718;2024-03-23T11:06:03;99520.41;;;22.23;28.19
11830;BME280;5972;42.134;24.718;2024-03-23T11:08:31;99489.53;;;22.12;27.88
11830;BME280;5972;42.134;24.718;2024-03-23T11:11:20;99372.34;;;21.18;28.12
11830;BME280;5972;42.134;24.718;2024-03-23T11:14:21;99349.06;;;20.72;28.49
11830;BME280;5972;42.134;24.718;2024-03-23T11:17:11;99377.75;;;20.45;29.05
11830;BME280;5972;42.134;24.718;2024-03-23T11:19:43;99488.66;;;19.86;31.12
11830;BME280;5972;42.134;24.718;2024-03-23T11:22:13;99480.63;;;19.65;31.05
11830;BME280;5972;42.134;24.718;2024-03-23T11:24:39;99366.66;;;19.02;30.91
11830;BME280;5972;42.134;24.718;2024-03-23T11:27:26;99427.47;;;19.86;30.40
11830;BME280;5972;42.134;24.718;2024-03-23T11:30:14;99326.19;;;19.58;30.39
11830;BME280;5972;42.134;24.718;2024-03-23T11:32:46;99336.78;;;19.93;29.69
11830;BME280;5972;42.134;24.718;2024-03-23T11:35:37;99456.53;;;20.55;30.83
11830;BME280;5972;42.134;24.718;2024-03-23T11:38:10;99331.34;;;19.07;31.19
11830;BME280;5972;42.134;24.718;2024-03-23T11:40:43;99289.72;;;18.75;31.11
11830;BME280;5972;42.134;24.718;2024-03-23T11:43:14;99382.66;;;19.10;31.30
11830;BME280;5972;42.134;24.718;2024-03-23T11:45:45;99443.75;;;19.15;31.67
11830;BME280;5972;42.134;24.718;2024-03-23T11:48:14;99331.53;;;18.86;31.72
11830;BME280;5972;42.134;24.718;2024-03-23T11:50:46;99341.09;;;18.64;31.98
11830;BME280;5972;42.134;24.718;2024-03-23T11:53:16;99336.81;;;18.56;32.26
11830;BME280;5972;42.134;24.718;2024-03-23T11:55:46;99350.47;;;18.66;31.48
11830;BME280;5972;42.134;24.718;2024-03-23T11:58:18;99370.78;;;19.24;31.49
11830;BME280;5972;42.134;24.718;2024-03-23T12:00:50;99396.88;;;19.43;31.28
11830;BME280;5972;42.134;24.718;2024-03-23T12:03:23;99307.50;;;18.46;31.88
11830;BME280;5972;42.134;24.718;2024-03-23T12:05:55;99309.63;;;18.83;31.29
11830;BME280;5972;42.134;24.718;2024-03-23T12:08:23;99368.81;;;19.69;31.01
11830;BME280;5972;42.134;24.718;2024-03-23T12:10:53;99246.88;;;18.44;31.08
11830;BME280;5972;42.134;24.718;2024-03-23T12:13:28;99269.19;;;18.42;30.75
11830;BME280;5972;42.134;24.718;2024-03-23T12:16:09;99220.94;;;18.04;30.99
11830;BME280;5972;42.134;24.718;2024-03-23T12:18:39;99259.47;;;18.31;30.97
11830;BME280;5972;42.134;24.718;2024-03-23T12:21:21;99268.91;;;18.26;31.79
11830;BME280;5972;42.134;24.718;2024-03-23T12:23:54;99341.47;;;19.14;31.83
11830;BME280;5972;42.134;24.718;2024-03-23T12:26:38;99317.63;;;18.59;31.77
11830;BME280;5972;42.134;24.718;2024-03-23T12:29:12;99318.34;;;18.71;31.81
11830;BME280;5972;42.134;24.718;2024-03-23T12:31:46;99260.84;;;18.63;31.52
11830;BME280;5972;42.134;24.718;2024-03-23T12:34:35;99350.34;;;19.32;30.98
11830;BME280;5972;42.134;24.718;2024-03-23T12:37:01;99304.59;;;18.74;31.38
11830;BME280;5972;42.134;24.718;2024-03-23T12:39:35;99244.13;;;18.44;30.55
11830;BME280;5972;42.134;24.718;2024-03-23T12:42:06;99284.44;;;18.95;30.38
11830;BME280;5972;42.134;24.718;2024-03-23T12:44:38;99213.94;;;18.54;30.90
11830;BME280;5972;42.134;24.718;2024-03-23T12:47:08;99153.84;;;18.29;30.97
11830;BME280;5972;42.134;24.718;2024-03-23T12:49:39;99240.13;;;19.03;30.06
11830;BME280;5972;42.134;24.718;2024-03-23T12:52:08;99285.34;;;19.26;30.28
11830;BME280;5972;42.134;24.718;2024-03-23T12:54:35;99165.16;;;18.35;30.77
11830;BME280;5972;42.134;24.718;2024-03-23T12:57:01;99160.41;;;18.39;30.85
11830;BME280;5972;42.134;24.718;2024-03-23T12:59:31;99151.72;;;18.55;30.40
11830;BME280;5972;42.134;24.718;2024-03-23T13:02:09;99157.88;;;18.62;30.31
11830;BME280;5972;42.134;24.718;2024-03-23T13:04:38;99225.06;;;18.81;30.21
11830;BME280;5972;42.134;24.718;2024-03-23T13:07:06;99156.13;;;18.38;30.03
11830;BME280;5972;42.134;24.718;2024-03-23T13:09:37;99137.75;;;18.39;29.47
11830;BME280;5972;42.134;24.718;2024-03-23T13:12:06;99231.00;;;19.14;29.83
11830;BME280;5972;42.134;24.718;2024-03-23T13:14:37;99285.19;;;19.77;29.78
11830;BME280;5972;42.134;24.718;2024-03-23T13:17:10;99146.81;;;18.28;29.27
11830;BME280;5972;42.134;24.718;2024-03-23T13:19:40;99270.00;;;19.32;29.87
11830;BME280;5972;42.134;24.718;2024-03-23T13:22:07;99202.19;;;18.98;29.34
11830;BME280;5972;42.134;24.718;2024-03-23T13:24:37;99102.22;;;18.28;28.61
11830;BME280;5972;42.134;24.718;2024-03-23T13:27:05;99181.97;;;18.82;27.58
11830;BME280;5972;42.134;24.718;2024-03-23T13:29:33;99278.88;;;19.46;27.16
11830;BME280;5972;42.134;24.718;2024-03-23T13:32:05;99258.41;;;19.55;26.99
11830;BME280;5972;42.134;24.718;2024-03-23T13:34:41;99143.06;;;18.56;28.57
11830;BME280;5972;42.134;24.718;2024-03-23T13:37:16;99107.84;;;18.51;28.88
11830;BME280;5972;42.134;24.718;2024-03-23T13:39:46;99212.84;;;19.27;28.65
11830;BME280;5972;42.134;24.718;2024-03-23T13:42:15;99151.63;;;18.62;28.66
11830;BME280;5972;42.134;24.718;2024-03-23T13:44:49;99196.47;;;18.82;27.84
11830;BME280;5972;42.134;24.718;2024-03-23T13:47:23;99255.91;;;18.92;29.12
11830;BME280;5972;42.134;24.718;2024-03-23T13:49:54;99247.72;;;18.89;29.14
11830;BME280;5972;42.134;24.718;2024-03-23T13:52:25;99162.66;;;18.51;29.10
11830;BME280;5972;42.134;24.718;2024-03-23T13:54:55;99093.13;;;18.38;28.07
11830;BME280;5972;42.134;24.718;2024-03-23T13:57:27;99118.06;;;18.54;28.18
11830;BME280;5972;42.134;24.718;2024-03-23T13:59:56;99176.66;;;19.05;28.56
11830;BME280;5972;42.134;24.718;2024-03-23T14:02:23;99139.75;;;18.76;28.32
11830;BME280;5972;42.134;24.718;2024-03-23T14:05:01;99158.22;;;18.68;28.61
11830;BME280;5972;42.134;24.718;2024-03-23T14:07:28;99128.16;;;18.16;28.87
11830;BME280;5972;42.134;24.718;2024-03-23T14:09:56;99072.63;;;18.12;29.59
11830;BME280;5972;42.134;24.718;2024-03-23T14:12:33;99134.91;;;18.46;29.20
11830;BME280;5972;42.134;24.718;2024-03-23T14:15:07;99180.31;;;18.91;28.77
11830;BME280;5972;42.134;24.718;2024-03-23T14:17:34;99118.41;;;18.56;28.91
11830;BME280;5972;42.134;24.718;2024-03-23T14:20:11;99130.94;;;18.54;29.07
11830;BME280;5972;42.134;24.718;2024-03-23T14:22:37;99162.75;;;18.85;28.89
11830;BME280;5972;42.134;24.718;2024-03-23T14:25:07;99136.00;;;18.59;28.44
11830;BME280;5972;42.134;24.718;2024-03-23T14:27:33;99151.91;;;18.75;28.40
11830;BME280;5972;42.134;24.718;2024-03-23T14:30:05;99114.22;;;18.41;29.10
11830;BME280;5972;42.134;24.718;2024-03-23T14:32:34;99179.31;;;18.75;31.30
11830;BME280;5972;42.134;24.718;2024-03-23T14:35:08;99071.88;;;18.08;31.78